sensor_id;sensor_type;location;lat;lon;timestamp;pressure;altitude;pressure_sealevel;temperature;humidity
65614;BME280;52283;49.292;10.572;2023-05-01T00:02:15;96551.34;;;9.14;100.00
65614;BME280;52283;49.292;10.572;2023-05-01T00:04:41;96551.13;;;9.18;100.00
65614;BME280;52283;49.292;10.572;2023-05-01T00:07:09;96556.38;;;9.10;100.00
65614;BME280;52283;49.292;10.572;2023-05-01T00:09:36;96550.00;;;8.84;100.00
65614;BME280;52283;49.292;10.572;2023-05-01T00:12:03;96537.69;;;8.70;100.00
65614;BME280;52283;49.292;10.572;2023-05-01T00:14:29;96536.88;;;8.90;100.00
65614;BME280;52283;49.292;10.572;2023-05-01T00:16:56;96535.06;;;9.07;100.00
65614;BME280;52283;49.292;10.572;2023-05-01T00:19:22;96536.63;;;8.88;100.00
65614;BME280;52283;49.292;10.572;2023-05-01T00:21:48;96539.09;;;9.06;100.00
65614;BME280;52283;49.292;10.572;2023-05-01T00:24:18;96533.53;;;9.06;100.00
65614;BME280;52283;49.292;10.572;2023-05-01T00:26:44;96534.78;;;9.05;100.00
65614;BME280;52283;49.292;10.572;2023-05-01T00:29:11;96529.16;;;9.00;100.00
65614;BME280;52283;49.292;10.572;2023-05-01T00:31:38;96535.03;;;8.81;100.00
65614;BME280;52283;49.292;10.572;2023-05-01T00:34:05;96530.94;;;8.77;100.00
65614;BME280;52283;49.292;10.572;2023-05-01T00:36:32;96529.19;;;8.79;100.00
65614;BME280;52283;49.292;10.572;2023-05-01T00:38:58;96531.00;;;8.62;100.00
65614;BME280;52283;49.292;10.572;2023-05-01T00:41:26;96524.69;;;8.62;100.00
65614;BME280;52283;49.292;10.572;2023-05-01T00:43:53;96520.97;;;8.70;100.00
65614;BME280;52283;49.292;10.572;2023-05-01T00:46:19;96512.88;;;8.72;100.00
65614;BME280;52283;49.292;10.572;2023-05-01T00:48:46;96516.38;;;8.67;100.00
65614;BME280;52283;49.292;10.572;2023-05-01T00:51:13;96518.13;;;8.65;100.00
65614;BME280;52283;49.292;10.572;2023-05-01T00:53:39;96508.25;;;8.64;100.00
65614;BME280;52283;49.292;10.572;2023-05-01T00:56:06;96504.69;;;8.63;100.00
65614;BME280;52283;49.292;10.572;2023-05-01T00:58:35;96510.69;;;8.56;100.00
65614;BME280;52283;49.292;10.572;2023-05-01T01:01:02;96505.63;;;8.54;100.00
65614;BME280;52283;49.292;10.572;2023-05-01T01:03:29;96503.16;;;8.62;100.00
65614;BME280;52283;49.292;10.572;2023-05-01T01:06:03;96499.19;;;8.48;100.00
65614;BME280;52283;49.292;10.572;2023-05-01T01:08:34;96510.50;;;8.39;100.00
65614;BME280;52283;49.292;10.572;2023-05-01T01:11:13;96499.63;;;8.41;100.00
65614;BME280;52283;49.292;10.572;2023-05-01T01:13:46;96502.41;;;8.41;100.00
65614;BME280;52283;49.292;10.572;2023-05-01T01:16:21;96498.50;;;8.33;100.00
65614;BME280;52283;49.292;10.572;2023-05-01T01:18:51;96506.38;;;8.35;100.00
65614;BME280;52283;49.292;10.572;2023-05-01T01:21:22;96491.75;;;8.40;100.00
65614;BME280;52283;49.292;10.572;2023-05-01T01:24:13;96483.00;;;8.32;100.00
65614;BME280;52283;49.292;10.572;2023-05-01T01:27:12;96477.16;;;8.30;100.00
65614;BME280;52283;49.292;10.572;2023-05-01T01:30:01;96482.41;;;8.22;100.00
65614;BME280;52283;49.292;10.572;2023-05-01T01:32:59;96477.09;;;8.24;100.00
65614;BME280;52283;49.292;10.572;2023-05-01T01:35:37;96478.31;;;8.18;100.00
65614;BME280;52283;49.292;10.572;2023-05-01T01:38:10;96478.84;;;8.02;100.00
65614;BME280;52283;49.292;10.572;2023-05-01T01:40:44;96467.22;;;8.03;100.00
65614;BME280;52283;49.292;10.572;2023-05-01T01:43:17;96463.69;;;8.03;100.00
65614;BME280;52283;49.292;10.572;2023-05-01T01:45:46;96469.66;;;7.95;100.00
65614;BME280;52283;49.292;10.572;2023-05-01T01:48:16;96459.78;;;7.94;100.00
65614;BME280;52283;49.292;10.572;2023-05-01T01:50:45;96455.31;;;7.82;100.00
65614;BME280;52283;49.292;10.572;2023-05-01T01:53:16;96469.22;;;7.82;100.00
65614;BME280;52283;49.292;10.572;2023-05-01T01:55:44;96457.13;;;7.85;100.00
65614;BME280;52283;49.292;10.572;2023-05-01T01:58:12;96462.84;;;7.97;100.00
65614;BME280;52283;49.292;10.572;2023-05-01T02:00:43;96463.69;;;8.03;100.00
65614;BME280;52283;49.292;10.572;2023-05-01T02:03:12;96459.22;;;8.11;100.00
65614;BME280;52283;49.292;10.572;2023-05-01T02:05:40;96461.81;;;8.14;100.00
65614;BME280;52283;49.292;10.572;2023-05-01T02:08:10;96462.13;;;7.81;100.00
65614;BME280;52283;49.292;10.572;2023-05-01T02:10:39;96467.09;;;7.92;100.00
65614;BME280;52283;49.292;10.572;2023-05-01T02:13:07;96465.34;;;7.94;100.00
65614;BME280;52283;49.292;10.572;2023-05-01T02:15:34;96455.97;;;7.92;100.00
65614;BME280;52283;49.292;10.572;2023-05-01T02:18:04;96457.41;;;8.08;100.00
65614;BME280;52283;49.292;10.572;2023-05-01T02:20:31;96462.16;;;8.02;100.00
65614;BME280;52283;49.292;10.572;2023-05-01T02:22:58;96458.38;;;8.05;100.00
65614;BME280;52283;49.292;10.572;2023-05-01T02:25:30;96456.84;;;8.04;100.00
65614;BME280;52283;49.292;10.572;2023-05-01T02:28:01;96459.69;;;7.89;100.00
65614;BME280;52283;49.292;10.572;2023-05-01T02:30:28;96457.50;;;7.93;100.00
65614;BME280;52283;49.292;10.572;2023-05-01T02:32:55;96451.44;;;7.94;100.00
65614;BME280;52283;49.292;10.572;2023-05-01T02:35:22;96457.88;;;7.86;100.00
65614;BME280;52283;49.292;10.572;2023-05-01T02:37:49;96449.66;;;7.56;100.00
65614;BME280;52283;49.292;10.572;2023-05-01T02:40:15;96449.69;;;7.77;100.00
65614;BME280;52283;49.292;10.572;2023-05-01T02:42:44;96449.06;;;7.87;100.00
65614;BME280;52283;49.292;10.572;2023-05-01T02:45:17;96441.47;;;7.88;100.00
65614;BME280;52283;49.292;10.572;2023-05-01T02:47:48;96434.94;;;7.91;100.00
65614;BME280;52283;49.292;10.572;2023-05-01T02:50:15;96435.41;;;7.89;100.00
65614;BME280;52283;49.292;10.572;2023-05-01T02:52:43;96432.00;;;7.80;100.00
65614;BME280;52283;49.292;10.572;2023-05-01T02:55:10;96425.44;;;7.62;100.00
65614;BME280;52283;49.292;10.572;2023-05-01T02:57:36;96426.63;;;7.56;100.00
65614;BME280;52283;49.292;10.572;2023-05-01T03:00:05;96433.50;;;7.60;100.00
65614;BME280;52283;49.292;10.572;2023-05-01T03:02:33;96427.13;;;7.54;100.00
65614;BME280;52283;49.292;10.572;2023-05-01T03:05:00;96416.97;;;7.51;100.00
65614;BME280;52283;49.292;10.572;2023-05-01T03:07:26;96418.00;;;7.54;100.00
65614;BME280;52283;49.292;10.572;2023-05-01T03:09:59;96426.34;;;7.54;100.00
65614;BME280;52283;49.292;10.572;2023-05-01T03:12:27;96427.78;;;7.49;100.00
65614;BME280;52283;49.292;10.572;2023-05-01T03:14:53;96424.28;;;7.34;100.00
65614;BME280;52283;49.292;10.572;2023-05-01T03:17:21;96419.22;;;7.32;100.00
65614;BME280;52283;49.292;10.572;2023-05-01T03:19:48;96419.03;;;7.21;100.00
65614;BME280;52283;49.292;10.572;2023-05-01T03:22:16;96416.75;;;7.05;100.00
65614;BME280;52283;49.292;10.572;2023-05-01T03:24:42;96418.28;;;7.21;100.00
65614;BME280;52283;49.292;10.572;2023-05-01T03:27:09;96417.59;;;7.26;100.00
65614;BME280;52283;49.292;10.572;2023-05-01T03:29:36;96412.13;;;7.31;100.00
65614;BME280;52283;49.292;10.572;2023-05-01T03:32:03;96406.53;;;6.96;100.00
65614;BME280;52283;49.292;10.572;2023-05-01T03:34:31;96402.56;;;7.03;100.00
65614;BME280;52283;49.292;10.572;2023-05-01T03:36:58;96413.75;;;7.23;100.00
65614;BME280;52283;49.292;10.572;2023-05-01T03:39:24;96416.16;;;7.30;100.00
65614;BME280;52283;49.292;10.572;2023-05-01T03:41:51;96406.75;;;7.28;100.00
65614;BME280;52283;49.292;10.572;2023-05-01T03:44:17;96410.13;;;7.32;100.00
65614;BME280;52283;49.292;10.572;2023-05-01T03:46:44;96396.22;;;7.32;100.00
65614;BME280;52283;49.292;10.572;2023-05-01T03:49:10;96390.13;;;7.13;100.00
65614;BME280;52283;49.292;10.572;2023-05-01T03:51:38;96393.63;;;7.28;100.00
65614;BME280;52283;49.292;10.572;2023-05-01T03:54:05;96393.03;;;7.39;100.00
65614;BME280;52283;49.292;10.572;2023-05-01T03:56:32;96387.50;;;7.24;100.00
65614;BME280;52283;49.292;10.572;2023-05-01T03:58:59;96389.22;;;7.22;100.00
65614;BME280;52283;49.292;10.572;2023-05-01T04:01:26;96391.72;;;7.20;100.00
65614;BME280;52283;49.292;10.572;2023-05-01T04:03:52;96394.91;;;7.13;100.00
65614;BME280;52283;49.292;10.572;2023-05-01T04:06:19;96388.03;;;6.93;100.00
65614;BME280;52283;49.292;10.572;2023-05-01T04:08:48;96393.13;;;6.95;100.00
65614;BME280;52283;49.292;10.572;2023-05-01T04:11:14;96392.34;;;6.94;100.00
65614;BME280;52283;49.292;10.572;2023-05-01T04:13:40;96397.22;;;6.99;100.00
65614;BME280;52283;49.292;10.572;2023-05-01T04:16:07;96390.53;;;6.77;100.00
65614;BME280;52283;49.292;10.572;2023-05-01T04:18:33;96388.44;;;6.57;100.00
65614;BME280;52283;49.292;10.572;2023-05-01T04:21:00;96384.41;;;6.72;100.00
65614;BME280;52283;49.292;10.572;2023-05-01T04:23:26;96398.22;;;6.67;100.00
65614;BME280;52283;49.292;10.572;2023-05-01T04:25:54;96397.75;;;6.68;100.00
65614;BME280;52283;49.292;10.572;2023-05-01T04:28:21;96381.72;;;6.78;100.00
65614;BME280;52283;49.292;10.572;2023-05-01T04:30:47;96379.78;;;6.84;100.00
65614;BME280;52283;49.292;10.572;2023-05-01T04:33:14;96377.41;;;6.77;100.00
65614;BME280;52283;49.292;10.572;2023-05-01T04:35:40;96387.97;;;6.88;100.00
65614;BME280;52283;49.292;10.572;2023-05-01T04:38:07;96373.00;;;6.85;100.00
65614;BME280;52283;49.292;10.572;2023-05-01T04:40:35;96370.91;;;6.80;100.00
65614;BME280;52283;49.292;10.572;2023-05-01T04:43:02;96372.06;;;6.73;100.00
65614;BME280;52283;49.292;10.572;2023-05-01T04:45:29;96373.19;;;6.82;100.00
65614;BME280;52283;49.292;10.572;2023-05-01T04:47:55;96376.84;;;6.88;100.00
65614;BME280;52283;49.292;10.572;2023-05-01T04:50:22;96378.81;;;7.02;100.00
65614;BME280;52283;49.292;10.572;2023-05-01T04:52:48;96379.88;;;7.04;100.00
65614;BME280;52283;49.292;10.572;2023-05-01T04:55:15;96382.28;;;7.12;100.00
65614;BME280;52283;49.292;10.572;2023-05-01T04:57:42;96384.00;;;6.94;100.00
65614;BME280;52283;49.292;10.572;2023-05-01T05:00:11;96388.38;;;7.16;100.00
65614;BME280;52283;49.292;10.572;2023-05-01T05:02:37;96386.94;;;7.20;100.00
65614;BME280;52283;49.292;10.572;2023-05-01T05:05:05;96395.16;;;7.29;100.00
65614;BME280;52283;49.292;10.572;2023-05-01T05:07:31;96395.03;;;7.39;100.00
65614;BME280;52283;49.292;10.572;2023-05-01T05:09:58;96401.13;;;7.57;100.00
65614;BME280;52283;49.292;10.572;2023-05-01T05:12:24;96398.75;;;7.50;100.00
65614;BME280;52283;49.292;10.572;2023-05-01T05:14:50;96393.06;;;7.80;100.00
65614;BME280;52283;49.292;10.572;2023-05-01T05:17:18;96385.69;;;7.97;100.00
65614;BME280;52283;49.292;10.572;2023-05-01T05:19:45;96385.00;;;8.02;100.00
65614;BME280;52283;49.292;10.572;2023-05-01T05:22:11;96382.69;;;8.01;100.00
65614;BME280;52283;49.292;10.572;2023-05-01T05:24:38;96373.63;;;8.26;100.00
65614;BME280;52283;49.292;10.572;2023-05-01T05:27:04;96376.84;;;8.19;100.00
65614;BME280;52283;49.292;10.572;2023-05-01T05:29:31;96374.59;;;8.43;100.00
65614;BME280;52283;49.292;10.572;2023-05-01T05:31:59;96376.34;;;8.41;100.00
65614;BME280;52283;49.292;10.572;2023-05-01T05:34:26;96375.47;;;8.55;100.00
65614;BME280;52283;49.292;10.572;2023-05-01T05:36:53;96367.69;;;8.65;100.00
65614;BME280;52283;49.292;10.572;2023-05-01T05:39:20;96364.47;;;8.72;100.00
65614;BME280;52283;49.292;10.572;2023-05-01T05:41:47;96364.97;;;8.70;100.00
65614;BME280;52283;49.292;10.572;2023-05-01T05:44:14;96357.44;;;8.76;100.00
65614;BME280;52283;49.292;10.572;2023-05-01T05:46:40;96357.69;;;8.52;100.00
65614;BME280;52283;49.292;10.572;2023-05-01T05:49:07;96365.53;;;8.48;100.00
65614;BME280;52283;49.292;10.572;2023-05-01T05:51:35;96367.53;;;8.48;100.00
65614;BME280;52283;49.292;10.572;2023-05-01T05:54:01;96364.34;;;8.55;100.00
65614;BME280;52283;49.292;10.572;2023-05-01T05:56:28;96365.19;;;8.67;100.00
65614;BME280;52283;49.292;10.572;2023-05-01T05:58:54;96358.69;;;8.49;100.00
65614;BME280;52283;49.292;10.572;2023-05-01T06:01:21;96364.25;;;8.49;100.00
65614;BME280;52283;49.292;10.572;2023-05-01T06:03:47;96363.91;;;8.36;100.00
65614;BME280;52283;49.292;10.572;2023-05-01T06:06:14;96373.06;;;8.22;100.00
65614;BME280;52283;49.292;10.572;2023-05-01T06:08:42;96363.47;;;8.23;100.00
65614;BME280;52283;49.292;10.572;2023-05-01T06:11:10;96366.47;;;8.19;100.00
65614;BME280;52283;49.292;10.572;2023-05-01T06:13:36;96365.41;;;8.37;100.00
65614;BME280;52283;49.292;10.572;2023-05-01T06:16:03;96362.53;;;8.83;100.00
65614;BME280;52283;49.292;10.572;2023-05-01T06:18:31;96350.03;;;9.05;100.00
65614;BME280;52283;49.292;10.572;2023-05-01T06:20:58;96347.38;;;8.90;100.00
65614;BME280;52283;49.292;10.572;2023-05-01T06:23:25;96336.47;;;8.86;100.00
65614;BME280;52283;49.292;10.572;2023-05-01T06:25:52;96340.22;;;9.15;100.00
65614;BME280;52283;49.292;10.572;2023-05-01T06:28:19;96339.53;;;9.26;100.00
65614;BME280;52283;49.292;10.572;2023-05-01T06:30:45;96336.44;;;9.61;100.00
65614;BME280;52283;49.292;10.572;2023-05-01T06:33:12;96335.47;;;9.75;100.00
65614;BME280;52283;49.292;10.572;2023-05-01T06:35:39;96330.63;;;9.64;99.24
65614;BME280;52283;49.292;10.572;2023-05-01T06:38:05;96338.66;;;9.51;100.00
65614;BME280;52283;49.292;10.572;2023-05-01T06:40:32;96345.53;;;9.56;100.00
65614;BME280;52283;49.292;10.572;2023-05-01T06:43:00;96344.72;;;9.44;100.00
65614;BME280;52283;49.292;10.572;2023-05-01T06:45:27;96338.28;;;9.27;100.00
65614;BME280;52283;49.292;10.572;2023-05-01T06:47:53;96337.47;;;9.63;100.00
65614;BME280;52283;49.292;10.572;2023-05-01T06:50:20;96332.75;;;9.92;99.75
65614;BME280;52283;49.292;10.572;2023-05-01T06:52:46;96326.31;;;9.63;98.08
65614;BME280;52283;49.292;10.572;2023-05-01T06:55:13;96326.34;;;9.69;97.99
65614;BME280;52283;49.292;10.572;2023-05-01T06:57:39;96338.97;;;9.59;100.00
65614;BME280;52283;49.292;10.572;2023-05-01T07:00:09;96336.31;;;9.87;100.00
65614;BME280;52283;49.292;10.572;2023-05-01T07:02:36;96330.72;;;9.87;100.00
65614;BME280;52283;49.292;10.572;2023-05-01T07:05:05;96330.41;;;9.73;98.67
65614;BME280;52283;49.292;10.572;2023-05-01T07:07:31;96331.50;;;9.93;100.00
65614;BME280;52283;49.292;10.572;2023-05-01T07:09:58;96337.91;;;9.51;100.00
65614;BME280;52283;49.292;10.572;2023-05-01T07:12:24;96332.41;;;9.67;100.00
65614;BME280;52283;49.292;10.572;2023-05-01T07:14:51;96327.72;;;10.01;100.00
65614;BME280;52283;49.292;10.572;2023-05-01T07:17:18;96328.09;;;9.66;99.50
65614;BME280;52283;49.292;10.572;2023-05-01T07:19:45;96324.38;;;9.86;100.00
65614;BME280;52283;49.292;10.572;2023-05-01T07:22:11;96331.88;;;10.23;99.92
65614;BME280;52283;49.292;10.572;2023-05-01T07:24:38;96317.94;;;10.34;93.76
65614;BME280;52283;49.292;10.572;2023-05-01T07:27:04;96320.25;;;10.58;94.28
65614;BME280;52283;49.292;10.572;2023-05-01T07:29:31;96315.56;;;10.10;95.30
65614;BME280;52283;49.292;10.572;2023-05-01T07:31:57;96321.97;;;10.22;96.63
65614;BME280;52283;49.292;10.572;2023-05-01T07:34:26;96318.22;;;10.58;96.30
65614;BME280;52283;49.292;10.572;2023-05-01T07:36:53;96314.41;;;10.56;93.50
65614;BME280;52283;49.292;10.572;2023-05-01T07:39:20;96307.78;;;10.53;93.01
65614;BME280;52283;49.292;10.572;2023-05-01T07:41:47;96312.13;;;10.71;94.94
65614;BME280;52283;49.292;10.572;2023-05-01T07:44:13;96308.63;;;9.83;95.60
65614;BME280;52283;49.292;10.572;2023-05-01T07:46:40;96304.91;;;10.14;97.52
65614;BME280;52283;49.292;10.572;2023-05-01T07:49:06;96308.56;;;10.43;96.99
65614;BME280;52283;49.292;10.572;2023-05-01T07:51:34;96305.50;;;10.80;93.39
65614;BME280;52283;49.292;10.572;2023-05-01T07:54:01;96301.19;;;10.79;92.51
65614;BME280;52283;49.292;10.572;2023-05-01T07:56:28;96293.81;;;10.92;91.14
65614;BME280;52283;49.292;10.572;2023-05-01T07:58:55;96304.72;;;10.23;94.01
65614;BME280;52283;49.292;10.572;2023-05-01T08:01:21;96309.06;;;10.69;97.51
65614;BME280;52283;49.292;10.572;2023-05-01T08:03:48;96308.28;;;10.41;95.28
65614;BME280;52283;49.292;10.572;2023-05-01T08:06:14;96315.47;;;9.82;100.00
65614;BME280;52283;49.292;10.572;2023-05-01T08:08:42;96315.81;;;10.06;100.00
65614;BME280;52283;49.292;10.572;2023-05-01T08:11:09;96320.75;;;10.45;100.00
65614;BME280;52283;49.292;10.572;2023-05-01T08:13:35;96318.22;;;10.64;100.00
65614;BME280;52283;49.292;10.572;2023-05-01T08:16:02;96321.53;;;10.85;100.00
65614;BME280;52283;49.292;10.572;2023-05-01T08:18:29;96304.75;;;10.68;97.66
65614;BME280;52283;49.292;10.572;2023-05-01T08:20:56;96316.97;;;10.87;100.00
65614;BME280;52283;49.292;10.572;2023-05-01T08:23:22;96322.28;;;10.46;100.00
65614;BME280;52283;49.292;10.572;2023-05-01T08:25:51;96318.72;;;10.90;100.00
65614;BME280;52283;49.292;10.572;2023-05-01T08:28:18;96313.09;;;10.40;99.94
65614;BME280;52283;49.292;10.572;2023-05-01T08:30:45;96319.00;;;10.64;100.00
65614;BME280;52283;49.292;10.572;2023-05-01T08:33:13;96309.56;;;11.01;100.00
65614;BME280;52283;49.292;10.572;2023-05-01T08:35:40;96309.84;;;10.75;100.00
65614;BME280;52283;49.292;10.572;2023-05-01T08:38:06;96321.28;;;10.66;100.00
65614;BME280;52283;49.292;10.572;2023-05-01T08:40:35;96327.56;;;10.38;100.00
65614;BME280;52283;49.292;10.572;2023-05-01T08:43:03;96327.59;;;9.73;100.00
65614;BME280;52283;49.292;10.572;2023-05-01T08:45:32;96333.53;;;9.92;100.00
65614;BME280;52283;49.292;10.572;2023-05-01T08:48:01;96346.53;;;10.18;100.00
65614;BME280;52283;49.292;10.572;2023-05-01T08:50:30;96337.75;;;10.47;100.00
65614;BME280;52283;49.292;10.572;2023-05-01T08:52:59;96344.63;;;10.57;100.00
65614;BME280;52283;49.292;10.572;2023-05-01T08:55:28;96340.31;;;10.67;100.00
65614;BME280;52283;49.292;10.572;2023-05-01T08:57:57;96349.91;;;10.33;100.00
65614;BME280;52283;49.292;10.572;2023-05-01T09:00:25;96347.56;;;10.20;100.00
65614;BME280;52283;49.292;10.572;2023-05-01T09:02:53;96348.81;;;10.19;100.00
65614;BME280;52283;49.292;10.572;2023-05-01T09:05:20;96355.91;;;10.09;100.00
65614;BME280;52283;49.292;10.572;2023-05-01T09:07:47;96358.13;;;9.88;100.00
65614;BME280;52283;49.292;10.572;2023-05-01T09:10:15;96358.88;;;9.89;100.00
65614;BME280;52283;49.292;10.572;2023-05-01T09:12:43;96355.75;;;9.64;100.00
65614;BME280;52283;49.292;10.572;2023-05-01T09:15:12;96358.22;;;9.57;100.00
65614;BME280;52283;49.292;10.572;2023-05-01T09:17:41;96351.53;;;9.91;100.00
65614;BME280;52283;49.292;10.572;2023-05-01T09:20:09;96355.59;;;9.90;100.00
65614;BME280;52283;49.292;10.572;2023-05-01T09:22:36;96354.00;;;9.78;100.00
65614;BME280;52283;49.292;10.572;2023-05-01T09:25:03;96357.19;;;9.54;100.00
65614;BME280;52283;49.292;10.572;2023-05-01T09:27:32;96350.31;;;9.44;100.00
65614;BME280;52283;49.292;10.572;2023-05-01T09:29:59;96357.03;;;9.74;100.00
65614;BME280;52283;49.292;10.572;2023-05-01T09:32:26;96350.50;;;9.89;100.00
65614;BME280;52283;49.292;10.572;2023-05-01T09:34:55;96354.41;;;10.14;100.00
65614;BME280;52283;49.292;10.572;2023-05-01T09:37:34;96363.66;;;10.48;100.00
65614;BME280;52283;49.292;10.572;2023-05-01T09:40:05;96359.19;;;10.02;100.00
65614;BME280;52283;49.292;10.572;2023-05-01T09:42:32;96360.31;;;10.32;100.00
65614;BME280;52283;49.292;10.572;2023-05-01T09:44:59;96368.03;;;10.65;100.00
65614;BME280;52283;49.292;10.572;2023-05-01T09:47:26;96355.28;;;10.53;100.00
65614;BME280;52283;49.292;10.572;2023-05-01T09:49:55;96350.16;;;10.24;100.00
65614;BME280;52283;49.292;10.572;2023-05-01T09:52:24;96353.00;;;10.46;100.00
65614;BME280;52283;49.292;10.572;2023-05-01T09:55:10;96349.19;;;10.55;100.00
65614;BME280;52283;49.292;10.572;2023-05-01T09:57:37;96351.75;;;10.81;100.00
65614;BME280;52283;49.292;10.572;2023-05-01T10:00:04;96348.81;;;10.14;100.00
65614;BME280;52283;49.292;10.572;2023-05-01T10:02:32;96350.34;;;10.09;100.00
65614;BME280;52283;49.292;10.572;2023-05-01T10:05:01;96347.94;;;10.56;100.00
65614;BME280;52283;49.292;10.572;2023-05-01T10:07:28;96357.97;;;10.14;100.00
65614;BME280;52283;49.292;10.572;2023-05-01T10:09:54;96346.09;;;10.25;100.00
65614;BME280;52283;49.292;10.572;2023-05-01T10:12:22;96343.34;;;10.58;100.00
65614;BME280;52283;49.292;10.572;2023-05-01T10:14:50;96346.41;;;10.60;100.00
65614;BME280;52283;49.292;10.572;2023-05-01T10:17:17;96338.03;;;10.44;100.00
65614;BME280;52283;49.292;10.572;2023-05-01T10:19:44;96349.72;;;10.64;100.00
65614;BME280;52283;49.292;10.572;2023-05-01T10:22:12;96336.75;;;10.45;100.00
65614;BME280;52283;49.292;10.572;2023-05-01T10:24:39;96341.56;;;10.50;100.00
65614;BME280;52283;49.292;10.572;2023-05-01T10:27:06;96353.00;;;10.46;100.00
65614;BME280;52283;49.292;10.572;2023-05-01T10:29:33;96343.63;;;10.88;100.00
65614;BME280;52283;49.292;10.572;2023-05-01T10:32:02;96342.88;;;10.77;100.00
65614;BME280;52283;49.292;10.572;2023-05-01T10:34:30;96345.41;;;10.75;100.00
65614;BME280;52283;49.292;10.572;2023-05-01T10:37:01;96345.16;;;10.89;100.00
65614;BME280;52283;49.292;10.572;2023-05-01T10:39:31;96343.63;;;10.99;100.00
65614;BME280;52283;49.292;10.572;2023-05-01T10:42:02;96336.53;;;11.04;100.00
65614;BME280;52283;49.292;10.572;2023-05-01T10:44:35;96344.63;;;11.13;100.00
65614;BME280;52283;49.292;10.572;2023-05-01T10:50:07;96324.34;;;10.85;100.00
65614;BME280;52283;49.292;10.572;2023-05-01T10:55:41;96331.03;;;10.05;100.00
65614;BME280;52283;49.292;10.572;2023-05-01T10:58:08;96331.75;;;9.95;100.00
65614;BME280;52283;49.292;10.572;2023-05-01T11:00:34;96328.38;;;10.73;100.00
65614;BME280;52283;49.292;10.572;2023-05-01T11:03:35;96331.94;;;10.90;100.00
65614;BME280;52283;49.292;10.572;2023-05-01T11:06:06;96331.19;;;11.06;100.00
65614;BME280;52283;49.292;10.572;2023-05-01T11:08:34;96321.75;;;11.15;100.00
65614;BME280;52283;49.292;10.572;2023-05-01T11:14:03;96331.69;;;10.71;100.00
65614;BME280;52283;49.292;10.572;2023-05-01T11:16:40;96325.78;;;11.36;100.00
65614;BME280;52283;49.292;10.572;2023-05-01T11:19:07;96326.44;;;11.87;100.00
65614;BME280;52283;49.292;10.572;2023-05-01T11:21:36;96323.75;;;11.37;100.00
65614;BME280;52283;49.292;10.572;2023-05-01T11:24:03;96321.19;;;11.44;100.00
65614;BME280;52283;49.292;10.572;2023-05-01T11:26:30;96323.16;;;11.72;100.00
65614;BME280;52283;49.292;10.572;2023-05-01T11:28:59;96325.56;;;11.00;100.00
65614;BME280;52283;49.292;10.572;2023-05-01T11:31:27;96320.97;;;11.20;100.00
65614;BME280;52283;49.292;10.572;2023-05-01T11:33:54;96311.13;;;10.68;100.00
65614;BME280;52283;49.292;10.572;2023-05-01T11:36:22;96313.63;;;10.61;100.00
65614;BME280;52283;49.292;10.572;2023-05-01T11:38:49;96314.66;;;10.69;100.00
65614;BME280;52283;49.292;10.572;2023-05-01T11:41:18;96315.69;;;10.77;100.00
65614;BME280;52283;49.292;10.572;2023-05-01T11:43:49;96313.16;;;10.90;100.00
65614;BME280;52283;49.292;10.572;2023-05-01T11:46:22;96318.97;;;10.92;100.00
65614;BME280;52283;49.292;10.572;2023-05-01T11:48:50;96313.91;;;10.85;100.00
65614;BME280;52283;49.292;10.572;2023-05-01T11:51:16;96309.06;;;10.97;100.00
65614;BME280;52283;49.292;10.572;2023-05-01T11:53:58;96310.56;;;11.15;100.00
65614;BME280;52283;49.292;10.572;2023-05-01T11:56:25;96309.50;;;11.35;100.00
65614;BME280;52283;49.292;10.572;2023-05-01T11:58:52;96297.34;;;11.21;100.00
65614;BME280;52283;49.292;10.572;2023-05-01T12:01:19;96300.53;;;11.58;98.38
65614;BME280;52283;49.292;10.572;2023-05-01T12:03:45;96303.09;;;11.56;98.96
65614;BME280;52283;49.292;10.572;2023-05-01T12:06:13;96295.72;;;11.59;97.82
65614;BME280;52283;49.292;10.572;2023-05-01T12:08:46;96305.84;;;11.79;100.00
65614;BME280;52283;49.292;10.572;2023-05-01T12:11:15;96296.19;;;11.69;97.14
65614;BME280;52283;49.292;10.572;2023-05-01T12:13:44;96297.63;;;11.06;100.00
65614;BME280;52283;49.292;10.572;2023-05-01T12:16:12;96296.41;;;11.87;98.90
65614;BME280;52283;49.292;10.572;2023-05-01T12:18:39;96296.94;;;11.75;96.45
65614;BME280;52283;49.292;10.572;2023-05-01T12:21:15;96287.53;;;12.25;96.67
65614;BME280;52283;49.292;10.572;2023-05-01T12:23:43;96297.91;;;11.88;100.00
65614;BME280;52283;49.292;10.572;2023-05-01T12:26:16;96289.28;;;12.28;99.69
65614;BME280;52283;49.292;10.572;2023-05-01T12:28:52;96289.44;;;12.00;100.00
65614;BME280;52283;49.292;10.572;2023-05-01T12:31:19;96299.78;;;11.58;100.00
65614;BME280;52283;49.292;10.572;2023-05-01T12:33:52;96304.84;;;11.71;100.00
65614;BME280;52283;49.292;10.572;2023-05-01T12:36:21;96292.38;;;11.66;100.00
65614;BME280;52283;49.292;10.572;2023-05-01T12:38:54;96295.25;;;11.49;100.00
65614;BME280;52283;49.292;10.572;2023-05-01T12:41:31;96288.34;;;11.56;100.00
65614;BME280;52283;49.292;10.572;2023-05-01T12:43:58;96293.25;;;12.02;100.00
65614;BME280;52283;49.292;10.572;2023-05-01T12:46:25;96290.44;;;12.08;97.74
65614;BME280;52283;49.292;10.572;2023-05-01T12:48:52;96287.25;;;12.28;95.20
65614;BME280;52283;49.292;10.572;2023-05-01T12:51:20;96291.50;;;11.99;96.68
65614;BME280;52283;49.292;10.572;2023-05-01T12:53:47;96276.56;;;11.80;99.69
65614;BME280;52283;49.292;10.572;2023-05-01T12:56:20;96281.81;;;12.41;95.60
65614;BME280;52283;49.292;10.572;2023-05-01T12:58:49;96283.03;;;12.51;95.80
65614;BME280;52283;49.292;10.572;2023-05-01T13:01:23;96278.78;;;12.39;92.47
65614;BME280;52283;49.292;10.572;2023-05-01T13:03:50;96281.63;;;12.28;93.14